CheckWX is a tool to help pilots better visualize weather data.  It is not intended as a substitute for an official pre-flight weather briefing.

07:10:31 UTC

AYPY METAR
Port Moresby Jacksons International Airport
Port Moresby, Papua New Guinea
Current

1 hour ago

AYPY 260600Z 15015KT 9999 HZ SCT030 29/25 Q1008 RMK/ CLD BUILD UPS TO N/E
Observed
May-26 @ 06:00 UTC
Wind
  • 150° at 15 KTS
Visibility
10,000+ meters
Flight Rules
VFR
Conditions
Haze
Cloud Levels
  • Scattered at 3,000' AGL
Temperature
29°C / 84°F
Dewpoint
25°C / 77°F
Heat Index
34°C / 94°F
Humidity
79%
Altimeter
29.76" Hg
Pressure
1007.92 hPa
Previous

1 hour ago

AYPY 260600Z 15015KT 9999 HZ SCT030 29/25 Q1008 RMK: CLD BUILD UPS TO N/E
Observed
May-26 @ 06:00 UTC
Wind
  • 150° at 15 KTS
Visibility
10,000+ meters
Flight Rules
VFR
Conditions
Haze
Cloud Levels
  • Scattered at 3,000' AGL
Temperature
29°C / 84°F
Dewpoint
25°C / 77°F
Heat Index
34°C / 94°F
Humidity
79%
Altimeter
29.76" Hg
Pressure
1007.92 hPa
Previous

2 hours ago

AYPY 260500Z 12012KT 9999 HZ SCT030 29/24 Q1008 RMK: CLD BUILD UPS TO N/NE
Observed
May-26 @ 05:00 UTC
Wind
  • 120° at 12 KTS
Visibility
10,000+ meters
Flight Rules
VFR
Conditions
Haze
Cloud Levels
  • Scattered at 3,000' AGL
Temperature
29°C / 84°F
Dewpoint
24°C / 75°F
Heat Index
33°C / 92°F
Humidity
74%
Altimeter
29.76" Hg
Pressure
1007.92 hPa